DLH1JW EPPO-EDDF
Flight info
| Callsign | DLH1JW |
|---|---|
| Flight time | 1h 3m |
| Altitude | 38000 |
| Route | ELSUP Z181 XIGRI DCT KUBOG DCT NIMAB T171 LASTO T178 KERAX KERAX5A |
| Aircraft | A319/M-SDE2E3FGIJ1LORWXYZ/HB1 |
Departure
| Time | 2026-05-07 11:36 |
|---|---|
| Airport | Poznań-Ławica Airport (EPPO) |
Arrival
| Time | 2026-05-07 12:39 |
|---|---|
| Airport | Frankfurt Main Airport (EDDF) |
| Time | Latitude | Longitude | Altitude | Speed | Heading |
|---|---|---|---|---|---|
| 2026-05-07 11:00 | 52.41584 | 16.82911 | 288 ft | 0 kts | 192° |
| 2026-05-07 11:22 | 52.41585 | 16.82911 | 288 ft | 1 kts | 192° |
| 2026-05-07 11:22 | 52.41609 | 16.82920 | 288 ft | 4 kts | 195° |
| 2026-05-07 11:22 | 52.41634 | 16.82934 | 292 ft | 4 kts | 211° |
| 2026-05-07 11:22 | 52.41649 | 16.82959 | 291 ft | 3 kts | 275° |
| 2026-05-07 11:23 | 52.41649 | 16.82965 | 290 ft | 0 kts | 282° |
| 2026-05-07 11:30 | 52.41652 | 16.82937 | 288 ft | 5 kts | 282° |
| 2026-05-07 11:30 | 52.41663 | 16.82869 | 288 ft | 7 kts | 289° |
| 2026-05-07 11:30 | 52.41699 | 16.82835 | 288 ft | 7 kts | 6° |
| 2026-05-07 11:31 | 52.41755 | 16.82866 | 288 ft | 12 kts | 18° |
| 2026-05-07 11:31 | 52.41840 | 16.82912 | 288 ft | 13 kts | 14° |
| 2026-05-07 11:31 | 52.41895 | 16.82818 | 288 ft | 14 kts | 287° |
| 2026-05-07 11:31 | 52.41925 | 16.82659 | 288 ft | 15 kts | 289° |
| 2026-05-07 11:32 | 52.41998 | 16.82281 | 288 ft | 25 kts | 286° |
| 2026-05-07 11:32 | 52.42051 | 16.82009 | 288 ft | 25 kts | 286° |
| 2026-05-07 11:32 | 52.42104 | 16.81736 | 291 ft | 25 kts | 288° |
| 2026-05-07 11:33 | 52.42157 | 16.81460 | 288 ft | 26 kts | 287° |
| 2026-05-07 11:33 | 52.42211 | 16.81177 | 288 ft | 26 kts | 287° |
| 2026-05-07 11:33 | 52.42267 | 16.80890 | 288 ft | 27 kts | 288° |
| 2026-05-07 11:33 | 52.42319 | 16.80623 | 292 ft | 17 kts | 293° |
| 2026-05-07 11:34 | 52.42389 | 16.80562 | 288 ft | 9 kts | 11° |
| 2026-05-07 11:34 | 52.42406 | 16.80570 | 288 ft | 3 kts | 16° |
| 2026-05-07 11:34 | 52.42436 | 16.80585 | 293 ft | 7 kts | 19° |
| 2026-05-07 11:34 | 52.42480 | 16.80673 | 288 ft | 12 kts | 98° |
| 2026-05-07 11:35 | 52.42468 | 16.80747 | 291 ft | 2 kts | 107° |
| 2026-05-07 11:35 | 52.42448 | 16.80856 | 290 ft | 36 kts | 108° |
| 2026-05-07 11:35 | 52.42287 | 16.81682 | 290 ft | 113 kts | 108° |
| 2026-05-07 11:35 | 52.41988 | 16.83205 | 467 ft | 152 kts | 106° |
| 2026-05-07 11:36 | 52.41674 | 16.84827 | 1234 ft | 150 kts | 103° |
| 2026-05-07 11:36 | 52.41364 | 16.86498 | 1865 ft | 159 kts | 103° |
| 2026-05-07 11:36 | 52.41018 | 16.88322 | 2323 ft | 179 kts | 105° |
| 2026-05-07 11:36 | 52.40618 | 16.90395 | 2765 ft | 204 kts | 106° |
| 2026-05-07 11:37 | 52.39992 | 16.92630 | 3242 ft | 232 kts | 128° |
| 2026-05-07 11:37 | 52.38586 | 16.94123 | 3768 ft | 257 kts | 167° |
| 2026-05-07 11:37 | 52.36799 | 16.93880 | 4647 ft | 266 kts | 204° |
| 2026-05-07 11:37 | 52.35411 | 16.91945 | 5663 ft | 267 kts | 236° |
| 2026-05-07 11:38 | 52.34556 | 16.89252 | 6774 ft | 267 kts | 246° |
| 2026-05-07 11:38 | 52.33912 | 16.86387 | 7823 ft | 269 kts | 250° |
| 2026-05-07 11:38 | 52.33325 | 16.83470 | 8847 ft | 271 kts | 250° |
| 2026-05-07 11:38 | 52.32787 | 16.80509 | 9856 ft | 275 kts | 256° |
| 2026-05-07 11:39 | 52.32647 | 16.77362 | 10750 ft | 281 kts | 269° |
| 2026-05-07 11:39 | 52.32958 | 16.74173 | 11616 ft | 289 kts | 282° |
| 2026-05-07 11:39 | 52.33580 | 16.70927 | 12066 ft | 311 kts | 284° |
| 2026-05-07 11:39 | 52.34244 | 16.67462 | 12608 ft | 325 kts | 284° |
| 2026-05-07 11:40 | 52.34927 | 16.63905 | 13392 ft | 330 kts | 284° |
| 2026-05-07 11:40 | 52.35620 | 16.60293 | 14164 ft | 335 kts | 284° |
| 2026-05-07 11:40 | 52.36318 | 16.56643 | 14893 ft | 339 kts | 284° |
| 2026-05-07 11:40 | 52.37025 | 16.52932 | 15620 ft | 343 kts | 284° |
| 2026-05-07 11:41 | 52.37738 | 16.49178 | 16304 ft | 348 kts | 284° |
| 2026-05-07 11:41 | 52.38459 | 16.45380 | 16998 ft | 352 kts | 284° |
| 2026-05-07 11:41 | 52.39191 | 16.41521 | 17665 ft | 357 kts | 284° |
| 2026-05-07 11:41 | 52.39934 | 16.37606 | 18334 ft | 362 kts | 284° |
| 2026-05-07 11:42 | 52.40661 | 16.33634 | 18932 ft | 366 kts | 283° |
| 2026-05-07 11:42 | 52.41313 | 16.29592 | 19557 ft | 368 kts | 281° |
| 2026-05-07 11:42 | 52.41914 | 16.25496 | 20193 ft | 371 kts | 280° |
| 2026-05-07 11:42 | 52.42496 | 16.21366 | 20822 ft | 374 kts | 280° |
| 2026-05-07 11:43 | 52.43080 | 16.17191 | 21450 ft | 377 kts | 280° |
| 2026-05-07 11:43 | 52.43675 | 16.12981 | 22075 ft | 381 kts | 280° |
| 2026-05-07 11:43 | 52.44284 | 16.08735 | 22703 ft | 385 kts | 281° |
| 2026-05-07 11:43 | 52.44908 | 16.04441 | 23234 ft | 391 kts | 281° |
| 2026-05-07 11:44 | 52.45547 | 16.00084 | 23768 ft | 395 kts | 281° |
| 2026-05-07 11:44 | 52.46196 | 15.95688 | 24283 ft | 398 kts | 280° |
| 2026-05-07 11:44 | 52.46845 | 15.91264 | 24813 ft | 400 kts | 280° |
| 2026-05-07 11:44 | 52.47493 | 15.86813 | 25338 ft | 402 kts | 279° |
| 2026-05-07 11:45 | 52.48139 | 15.82349 | 25852 ft | 404 kts | 279° |
| 2026-05-07 11:45 | 52.48786 | 15.77851 | 26353 ft | 406 kts | 279° |
| 2026-05-07 11:45 | 52.49435 | 15.73329 | 26857 ft | 408 kts | 278° |
| 2026-05-07 11:45 | 52.50088 | 15.68785 | 27369 ft | 410 kts | 278° |
| 2026-05-07 11:46 | 52.50740 | 15.64229 | 27839 ft | 412 kts | 278° |
| 2026-05-07 11:46 | 52.51393 | 15.59635 | 28311 ft | 415 kts | 279° |
| 2026-05-07 11:46 | 52.52048 | 15.55000 | 28745 ft | 418 kts | 278° |
| 2026-05-07 11:46 | 52.52703 | 15.50333 | 29194 ft | 421 kts | 278° |
| 2026-05-07 11:47 | 52.53360 | 15.45637 | 29649 ft | 423 kts | 278° |
| 2026-05-07 11:47 | 52.53822 | 15.40877 | 30085 ft | 421 kts | 270° |
| 2026-05-07 11:47 | 52.53837 | 15.36104 | 30455 ft | 418 kts | 262° |
| 2026-05-07 11:47 | 52.53664 | 15.31322 | 30814 ft | 420 kts | 262° |
| 2026-05-07 11:48 | 52.53492 | 15.26576 | 31172 ft | 423 kts | 262° |
| 2026-05-07 11:48 | 52.53320 | 15.21739 | 31517 ft | 425 kts | 262° |
| 2026-05-07 11:48 | 52.53150 | 15.16892 | 31913 ft | 426 kts | 262° |
| 2026-05-07 11:48 | 52.52980 | 15.12041 | 32399 ft | 425 kts | 262° |
| 2026-05-07 11:49 | 52.52808 | 15.07192 | 32790 ft | 426 kts | 263° |
| 2026-05-07 11:49 | 52.52632 | 15.02324 | 33190 ft | 427 kts | 263° |
| 2026-05-07 11:49 | 52.52454 | 14.97472 | 33641 ft | 426 kts | 262° |
| 2026-05-07 11:49 | 52.52276 | 14.92619 | 34114 ft | 425 kts | 262° |
| 2026-05-07 11:50 | 52.52100 | 14.87778 | 34505 ft | 424 kts | 262° |
| 2026-05-07 11:50 | 52.51922 | 14.82940 | 34861 ft | 424 kts | 262° |
| 2026-05-07 11:50 | 52.51740 | 14.78112 | 35189 ft | 425 kts | 262° |
| 2026-05-07 11:50 | 52.51555 | 14.73273 | 35515 ft | 425 kts | 262° |
| 2026-05-07 11:51 | 52.51365 | 14.68433 | 35835 ft | 425 kts | 262° |
| 2026-05-07 11:51 | 52.51007 | 14.63641 | 36130 ft | 421 kts | 254° |
| 2026-05-07 11:51 | 52.50192 | 14.59057 | 36412 ft | 418 kts | 245° |
| 2026-05-07 11:51 | 52.48961 | 14.54762 | 36687 ft | 415 kts | 239° |
| 2026-05-07 11:52 | 52.47608 | 14.50573 | 36963 ft | 416 kts | 239° |
| 2026-05-07 11:52 | 52.46257 | 14.46373 | 37228 ft | 416 kts | 239° |
| 2026-05-07 11:52 | 52.44906 | 14.42174 | 37485 ft | 416 kts | 239° |
| 2026-05-07 11:52 | 52.43558 | 14.37982 | 37741 ft | 417 kts | 240° |
| 2026-05-07 11:53 | 52.42203 | 14.33778 | 37967 ft | 418 kts | 240° |
| 2026-05-07 11:53 | 52.39486 | 14.25380 | 38027 ft | 416 kts | 239° |
| 2026-05-07 11:54 | 52.36770 | 14.17020 | 38030 ft | 416 kts | 239° |
| 2026-05-07 11:54 | 52.34036 | 14.08669 | 38029 ft | 416 kts | 239° |
| 2026-05-07 11:55 | 52.31296 | 14.00330 | 38030 ft | 416 kts | 239° |
| 2026-05-07 11:55 | 52.28557 | 13.92004 | 38034 ft | 416 kts | 239° |
| 2026-05-07 11:56 | 52.25815 | 13.83669 | 38049 ft | 417 kts | 239° |
| 2026-05-07 11:56 | 52.23061 | 13.75337 | 38043 ft | 417 kts | 239° |
| 2026-05-07 11:57 | 52.20294 | 13.67012 | 38043 ft | 418 kts | 239° |
| 2026-05-07 11:57 | 52.17517 | 13.58702 | 38041 ft | 418 kts | 239° |
| 2026-05-07 11:58 | 52.14735 | 13.50379 | 38041 ft | 419 kts | 239° |
| 2026-05-07 11:58 | 52.11954 | 13.42046 | 38034 ft | 419 kts | 239° |
| 2026-05-07 11:59 | 52.09179 | 13.33785 | 38049 ft | 419 kts | 239° |
| 2026-05-07 11:59 | 52.06370 | 13.25480 | 38032 ft | 419 kts | 239° |
| 2026-05-07 12:00 | 52.03530 | 13.17123 | 38021 ft | 420 kts | 239° |
| 2026-05-07 12:00 | 52.00710 | 13.08828 | 38014 ft | 420 kts | 239° |
| 2026-05-07 12:01 | 51.97903 | 13.00579 | 38023 ft | 420 kts | 239° |
| 2026-05-07 12:01 | 51.95066 | 12.92289 | 38022 ft | 420 kts | 239° |
| 2026-05-07 12:02 | 51.92126 | 12.84103 | 38023 ft | 420 kts | 237° |
| 2026-05-07 12:02 | 51.89092 | 12.76028 | 38041 ft | 420 kts | 237° |
| 2026-05-07 12:03 | 51.86044 | 12.67947 | 38029 ft | 420 kts | 237° |
| 2026-05-07 12:03 | 51.83018 | 12.59859 | 38023 ft | 421 kts | 237° |
| 2026-05-07 12:04 | 51.80486 | 12.53066 | 38019 ft | 421 kts | 237° |
| 2026-05-07 12:04 | 51.77476 | 12.45022 | 38024 ft | 421 kts | 237° |
| 2026-05-07 12:05 | 51.74431 | 12.36941 | 38024 ft | 421 kts | 237° |
| 2026-05-07 12:05 | 51.71367 | 12.28823 | 38026 ft | 421 kts | 237° |
| 2026-05-07 12:06 | 51.68333 | 12.20819 | 38031 ft | 421 kts | 237° |
| 2026-05-07 12:06 | 51.65272 | 12.12757 | 38032 ft | 422 kts | 237° |
| 2026-05-07 12:07 | 51.62201 | 12.04714 | 38032 ft | 422 kts | 237° |
| 2026-05-07 12:07 | 51.59037 | 11.96764 | 38033 ft | 422 kts | 236° |
| 2026-05-07 12:08 | 51.55795 | 11.88886 | 38027 ft | 422 kts | 235° |
| 2026-05-07 12:08 | 51.52559 | 11.81026 | 38026 ft | 421 kts | 236° |
| 2026-05-07 12:09 | 51.49340 | 11.73155 | 38022 ft | 422 kts | 236° |
| 2026-05-07 12:09 | 51.46122 | 11.65283 | 38024 ft | 422 kts | 236° |
| 2026-05-07 12:10 | 51.42903 | 11.57430 | 38028 ft | 422 kts | 236° |
| 2026-05-07 12:10 | 51.39662 | 11.49581 | 38027 ft | 422 kts | 235° |
| 2026-05-07 12:11 | 51.35683 | 11.42735 | 38022 ft | 421 kts | 220° |
| 2026-05-07 12:11 | 51.31248 | 11.36573 | 37494 ft | 425 kts | 221° |
| 2026-05-07 12:11 | 51.28986 | 11.33418 | 35992 ft | 442 kts | 221° |
| 2026-05-07 12:12 | 51.26660 | 11.30172 | 35397 ft | 441 kts | 221° |
| 2026-05-07 12:12 | 51.24383 | 11.27000 | 35228 ft | 428 kts | 221° |
| 2026-05-07 12:12 | 51.22151 | 11.23891 | 34741 ft | 425 kts | 221° |
| 2026-05-07 12:12 | 51.19929 | 11.20796 | 34235 ft | 423 kts | 221° |
| 2026-05-07 12:13 | 51.17719 | 11.17725 | 33672 ft | 420 kts | 221° |
| 2026-05-07 12:13 | 51.15524 | 11.14688 | 33181 ft | 416 kts | 220° |
| 2026-05-07 12:13 | 51.13461 | 11.11499 | 32680 ft | 412 kts | 229° |
| 2026-05-07 12:13 | 51.11791 | 11.07809 | 32150 ft | 410 kts | 238° |
| 2026-05-07 12:14 | 51.10167 | 11.04021 | 31064 ft | 421 kts | 231° |
| 2026-05-07 12:14 | 51.08252 | 11.00414 | 30149 ft | 429 kts | 226° |
| 2026-05-07 12:14 | 51.06206 | 10.96998 | 29659 ft | 423 kts | 224° |
| 2026-05-07 12:14 | 51.04145 | 10.93708 | 29205 ft | 417 kts | 224° |
| 2026-05-07 12:15 | 51.02115 | 10.90467 | 28748 ft | 410 kts | 224° |
| 2026-05-07 12:15 | 51.00147 | 10.87246 | 28322 ft | 404 kts | 225° |
| 2026-05-07 12:15 | 50.98254 | 10.84063 | 27896 ft | 399 kts | 226° |
| 2026-05-07 12:15 | 50.96379 | 10.80846 | 27460 ft | 395 kts | 226° |
| 2026-05-07 12:16 | 50.94534 | 10.77647 | 27020 ft | 391 kts | 227° |
| 2026-05-07 12:16 | 50.92704 | 10.74473 | 26567 ft | 389 kts | 227° |
| 2026-05-07 12:16 | 50.90882 | 10.71327 | 26118 ft | 386 kts | 226° |
| 2026-05-07 12:16 | 50.89069 | 10.68221 | 25664 ft | 384 kts | 226° |
| 2026-05-07 12:17 | 50.87257 | 10.65130 | 25192 ft | 382 kts | 226° |
| 2026-05-07 12:17 | 50.85454 | 10.62060 | 24725 ft | 380 kts | 227° |
| 2026-05-07 12:17 | 50.83656 | 10.59001 | 24232 ft | 379 kts | 227° |
| 2026-05-07 12:17 | 50.81866 | 10.55952 | 23747 ft | 377 kts | 227° |
| 2026-05-07 12:18 | 50.80085 | 10.52916 | 23227 ft | 376 kts | 228° |
| 2026-05-07 12:18 | 50.78312 | 10.49896 | 22744 ft | 373 kts | 228° |
| 2026-05-07 12:18 | 50.76556 | 10.46911 | 22284 ft | 369 kts | 227° |
| 2026-05-07 12:18 | 50.74812 | 10.43959 | 21826 ft | 366 kts | 227° |
| 2026-05-07 12:19 | 50.73086 | 10.41043 | 21379 ft | 363 kts | 228° |
| 2026-05-07 12:19 | 50.71371 | 10.38145 | 20934 ft | 360 kts | 227° |
| 2026-05-07 12:19 | 50.69667 | 10.35271 | 20496 ft | 357 kts | 228° |
| 2026-05-07 12:19 | 50.67973 | 10.32417 | 20061 ft | 355 kts | 227° |
| 2026-05-07 12:20 | 50.66294 | 10.29589 | 19635 ft | 353 kts | 229° |
| 2026-05-07 12:20 | 50.64840 | 10.26498 | 19200 ft | 349 kts | 242° |
| 2026-05-07 12:20 | 50.63689 | 10.23164 | 18781 ft | 346 kts | 242° |
| 2026-05-07 12:20 | 50.62543 | 10.19840 | 18364 ft | 344 kts | 243° |
| 2026-05-07 12:21 | 50.61400 | 10.16535 | 17897 ft | 342 kts | 243° |
| 2026-05-07 12:21 | 50.60265 | 10.13259 | 17490 ft | 339 kts | 242° |
| 2026-05-07 12:21 | 50.59140 | 10.10022 | 17096 ft | 336 kts | 243° |
| 2026-05-07 12:21 | 50.58022 | 10.06807 | 16701 ft | 334 kts | 243° |
| 2026-05-07 12:22 | 50.56911 | 10.03617 | 16300 ft | 331 kts | 243° |
| 2026-05-07 12:22 | 50.55810 | 10.00456 | 15910 ft | 329 kts | 243° |
| 2026-05-07 12:22 | 50.54715 | 9.97315 | 15530 ft | 326 kts | 243° |
| 2026-05-07 12:22 | 50.53832 | 9.94059 | 15152 ft | 322 kts | 255° |
| 2026-05-07 12:23 | 50.53226 | 9.90679 | 14777 ft | 320 kts | 256° |
| 2026-05-07 12:23 | 50.52625 | 9.87325 | 14405 ft | 318 kts | 256° |
| 2026-05-07 12:23 | 50.52023 | 9.83990 | 14038 ft | 316 kts | 256° |
| 2026-05-07 12:23 | 50.51424 | 9.80679 | 13646 ft | 315 kts | 256° |
| 2026-05-07 12:24 | 50.50826 | 9.77379 | 13264 ft | 313 kts | 256° |
| 2026-05-07 12:24 | 50.50233 | 9.74111 | 12886 ft | 310 kts | 256° |
| 2026-05-07 12:24 | 50.49656 | 9.70868 | 12508 ft | 307 kts | 256° |
| 2026-05-07 12:24 | 50.49099 | 9.67646 | 12136 ft | 304 kts | 257° |
| 2026-05-07 12:25 | 50.48548 | 9.64454 | 11789 ft | 301 kts | 255° |
| 2026-05-07 12:25 | 50.47654 | 9.61607 | 11704 ft | 291 kts | 235° |
| 2026-05-07 12:25 | 50.46214 | 9.59408 | 11563 ft | 293 kts | 220° |
| 2026-05-07 12:25 | 50.44605 | 9.57418 | 11339 ft | 296 kts | 220° |
| 2026-05-07 12:26 | 50.42977 | 9.55437 | 11112 ft | 296 kts | 219° |
| 2026-05-07 12:26 | 50.41350 | 9.53466 | 10882 ft | 295 kts | 219° |
| 2026-05-07 12:26 | 50.39728 | 9.51504 | 10669 ft | 294 kts | 219° |
| 2026-05-07 12:26 | 50.38111 | 9.49548 | 10443 ft | 293 kts | 219° |
| 2026-05-07 12:27 | 50.36475 | 9.47562 | 10229 ft | 314 kts | 219° |
| 2026-05-07 12:27 | 50.34666 | 9.45353 | 10004 ft | 339 kts | 220° |
| 2026-05-07 12:27 | 50.32785 | 9.43064 | 9765 ft | 344 kts | 219° |
| 2026-05-07 12:27 | 50.30891 | 9.40771 | 9528 ft | 344 kts | 219° |
| 2026-05-07 12:28 | 50.28996 | 9.38484 | 9287 ft | 343 kts | 219° |
| 2026-05-07 12:28 | 50.27106 | 9.36206 | 9043 ft | 342 kts | 219° |
| 2026-05-07 12:28 | 50.25227 | 9.33940 | 8810 ft | 340 kts | 219° |
| 2026-05-07 12:28 | 50.23480 | 9.31495 | 8567 ft | 337 kts | 231° |
| 2026-05-07 12:29 | 50.22243 | 9.28436 | 8334 ft | 332 kts | 248° |
| 2026-05-07 12:29 | 50.21448 | 9.25066 | 8103 ft | 330 kts | 252° |
| 2026-05-07 12:29 | 50.20694 | 9.21783 | 7869 ft | 312 kts | 252° |
| 2026-05-07 12:29 | 50.19975 | 9.18691 | 7624 ft | 295 kts | 252° |
| 2026-05-07 12:30 | 50.19289 | 9.15764 | 7401 ft | 280 kts | 252° |
| 2026-05-07 12:30 | 50.18634 | 9.12953 | 7177 ft | 272 kts | 252° |
| 2026-05-07 12:30 | 50.18005 | 9.10255 | 6953 ft | 259 kts | 252° |
| 2026-05-07 12:30 | 50.17405 | 9.07680 | 6730 ft | 247 kts | 252° |
| 2026-05-07 12:31 | 50.16828 | 9.05217 | 6507 ft | 236 kts | 252° |
| 2026-05-07 12:31 | 50.16280 | 9.02879 | 6279 ft | 223 kts | 252° |
| 2026-05-07 12:31 | 50.15757 | 9.00654 | 6052 ft | 214 kts | 252° |
| 2026-05-07 12:31 | 50.15248 | 8.98478 | 5819 ft | 214 kts | 252° |
| 2026-05-07 12:32 | 50.14739 | 8.96299 | 5588 ft | 212 kts | 252° |
| 2026-05-07 12:32 | 50.14237 | 8.94156 | 5358 ft | 209 kts | 252° |
| 2026-05-07 12:32 | 50.13745 | 8.92064 | 5163 ft | 201 kts | 252° |
| 2026-05-07 12:32 | 50.13274 | 8.90065 | 5026 ft | 189 kts | 252° |
| 2026-05-07 12:33 | 50.12424 | 8.86455 | 5022 ft | 176 kts | 252° |
| 2026-05-07 12:33 | 50.12002 | 8.84657 | 5024 ft | 174 kts | 252° |
| 2026-05-07 12:33 | 50.11590 | 8.82914 | 4817 ft | 173 kts | 252° |
| 2026-05-07 12:34 | 50.11166 | 8.81122 | 4452 ft | 178 kts | 253° |
| 2026-05-07 12:34 | 50.10742 | 8.79326 | 4160 ft | 175 kts | 253° |
| 2026-05-07 12:34 | 50.10324 | 8.77558 | 3902 ft | 172 kts | 252° |
| 2026-05-07 12:34 | 50.09923 | 8.75866 | 3656 ft | 161 kts | 253° |
| 2026-05-07 12:35 | 50.09548 | 8.74279 | 3444 ft | 152 kts | 253° |
| 2026-05-07 12:35 | 50.09188 | 8.72760 | 3206 ft | 146 kts | 252° |
| 2026-05-07 12:35 | 50.08847 | 8.71320 | 2994 ft | 137 kts | 253° |
| 2026-05-07 12:35 | 50.08525 | 8.69963 | 2807 ft | 132 kts | 252° |
| 2026-05-07 12:36 | 50.08210 | 8.68629 | 2578 ft | 130 kts | 254° |
| 2026-05-07 12:36 | 50.07897 | 8.67309 | 2432 ft | 130 kts | 252° |
| 2026-05-07 12:36 | 50.07585 | 8.65992 | 2255 ft | 129 kts | 253° |
| 2026-05-07 12:36 | 50.07276 | 8.64684 | 2071 ft | 129 kts | 253° |
| 2026-05-07 12:37 | 50.06964 | 8.63385 | 1890 ft | 128 kts | 252° |
| 2026-05-07 12:37 | 50.06654 | 8.62081 | 1685 ft | 128 kts | 253° |
| 2026-05-07 12:37 | 50.06345 | 8.60785 | 1482 ft | 128 kts | 253° |
| 2026-05-07 12:37 | 50.06036 | 8.59488 | 1257 ft | 126 kts | 252° |
| 2026-05-07 12:38 | 50.05728 | 8.58203 | 1078 ft | 125 kts | 251° |
| 2026-05-07 12:38 | 50.05429 | 8.56923 | 885 ft | 126 kts | 251° |
| 2026-05-07 12:38 | 50.05124 | 8.55660 | 731 ft | 124 kts | 249° |
| 2026-05-07 12:38 | 50.04827 | 8.54410 | 571 ft | 123 kts | 249° |
| 2026-05-07 12:39 | 50.04533 | 8.53173 | 380 ft | 121 kts | 250° |
| 2026-05-07 12:39 | 50.04270 | 8.52068 | 340 ft | 90 kts | 249° |
| 2026-05-07 12:39 | 50.04111 | 8.51405 | 332 ft | 47 kts | 249° |
| 2026-05-07 12:39 | 50.03997 | 8.51051 | 328 ft | 30 kts | 228° |
| 2026-05-07 12:40 | 50.03888 | 8.50898 | 324 ft | 13 kts | 217° |
| 2026-05-07 12:40 | 50.03835 | 8.50837 | 329 ft | 0 kts | 214° |
| 2026-05-07 12:40 | 50.03833 | 8.50836 | 329 ft | 2 kts | 204° |
| 2026-05-07 12:41 | 50.03782 | 8.50891 | 333 ft | 14 kts | 101° |
| 2026-05-07 12:41 | 50.03816 | 8.51068 | 331 ft | 21 kts | 70° |
| 2026-05-07 12:41 | 50.03882 | 8.51342 | 332 ft | 30 kts | 70° |
| 2026-05-07 12:41 | 50.03954 | 8.51648 | 332 ft | 30 kts | 69° |
| 2026-05-07 12:42 | 50.04028 | 8.51953 | 336 ft | 30 kts | 69° |
| 2026-05-07 12:42 | 50.04099 | 8.52252 | 350 ft | 29 kts | 70° |
| 2026-05-07 12:42 | 50.04167 | 8.52535 | 348 ft | 28 kts | 69° |
| 2026-05-07 12:42 | 50.04234 | 8.52810 | 355 ft | 27 kts | 70° |
| 2026-05-07 12:43 | 50.04298 | 8.53077 | 355 ft | 26 kts | 71° |
| 2026-05-07 12:43 | 50.04356 | 8.53327 | 374 ft | 23 kts | 69° |
| 2026-05-07 12:43 | 50.04398 | 8.53539 | 375 ft | 20 kts | 83° |
| 2026-05-07 12:43 | 50.04414 | 8.53797 | 375 ft | 27 kts | 84° |
| 2026-05-07 12:44 | 50.04434 | 8.54099 | 375 ft | 28 kts | 84° |
| 2026-05-07 12:44 | 50.04451 | 8.54366 | 373 ft | 24 kts | 84° |
| 2026-05-07 12:44 | 50.04428 | 8.54596 | 365 ft | 23 kts | 117° |
| 2026-05-07 12:44 | 50.04303 | 8.54778 | 358 ft | 28 kts | 155° |
| 2026-05-07 12:45 | 50.04114 | 8.54884 | 354 ft | 26 kts | 159° |
| 2026-05-07 12:45 | 50.04019 | 8.55007 | 356 ft | 17 kts | 94° |
| 2026-05-07 12:45 | 50.04060 | 8.55187 | 356 ft | 20 kts | 70° |
| 2026-05-07 12:45 | 50.04116 | 8.55422 | 356 ft | 27 kts | 70° |
| 2026-05-07 12:46 | 50.04186 | 8.55715 | 359 ft | 29 kts | 70° |
| 2026-05-07 12:46 | 50.04245 | 8.55961 | 361 ft | 20 kts | 69° |
| 2026-05-07 12:46 | 50.04317 | 8.56068 | 358 ft | 14 kts | 355° |
| 2026-05-07 12:46 | 50.04411 | 8.56030 | 361 ft | 14 kts | 8° |
| 2026-05-07 12:47 | 50.04461 | 8.56152 | 360 ft | 12 kts | 70° |
| 2026-05-07 12:47 | 50.04435 | 8.56202 | 359 ft | 7 kts | 165° |
| 2026-05-07 12:47 | 50.04405 | 8.56221 | 359 ft | 2 kts | 159° |
| 2026-05-07 12:47 | 50.04402 | 8.56222 | 360 ft | 0 kts | 159° |